CheckWX is a tool to help pilots better visualize weather data.  It is not intended as a substitute for an official pre-flight weather briefing.

00:51:49 UTC

8D3 METAR
Sisseton Municipal Airport
Sisseton, South Dakota, USA
Current

56 mins ago

K8D3 232356Z AUTO 16009KT 07/04 A3005 RMK AO1 SLP192 T00670044 10089 20050 56005
Observed
Mar-23 @ 23:56 UTC
Wind
  • 160° at 9 KTS
Visibility
Temperature
C / 45°F
Dewpoint
C / 39°F
Humidity
81%
Altimeter
30.05" Hg
Pressure
1019.2 hPa
Previous

2 hours ago

K8D3 232256Z AUTO 15007KT 07/05 A3006 RMK AO1 SLP192 T00720050
Observed
Mar-23 @ 22:56 UTC
Wind
  • 150° at 7 KTS
Visibility
Temperature
C / 45°F
Dewpoint
C / 41°F
Humidity
87%
Altimeter
30.06" Hg
Pressure
1019.2 hPa
Previous

3 hours ago

K8D3 232156Z AUTO 15007KT 08/06 A3006 RMK AO1 SLP193 T00830056
Observed
Mar-23 @ 21:56 UTC
Wind
  • 150° at 7 KTS
Visibility
Temperature
C / 46°F
Dewpoint
C / 43°F
Humidity
87%
Altimeter
30.06" Hg
Pressure
1019.3 hPa